Time,TemperatureF,DewpointF,PressureIn,WindDirection,WindDirectionDegrees,WindSpeedMPH,WindSpeedGustMPH,Humidity,HourlyPrecipIn,Conditions,Clouds,dailyrainin,SoftwareType,DateUTC
2013-11-20 00:21:00,39.0,32.0,-100.00,SSE,150,10.0,14.0,77,-99.99,,,-99.99,,2013-11-20 06:21:00,
2013-11-20 01:11:00,38.0,31.0,-100.00,SSE,155,6.0,11.0,75,-99.99,,,-99.99,,2013-11-20 07:11:00,
2013-11-20 01:21:00,38.0,31.0,-100.00,SE,145,6.0,13.0,75,-99.99,,,-99.99,,2013-11-20 07:21:00,
2013-11-20 01:42:00,38.0,31.0,-100.00,SE,135,6.0,11.0,75,-99.99,,,-99.99,,2013-11-20 07:42:00,
2013-11-20 02:21:00,38.0,31.0,-100.00,SE,130,8.0,15.0,75,-99.99,,,-99.99,,2013-11-20 08:21:00,
2013-11-20 02:42:00,39.0,32.0,-100.00,SE,145,7.0,14.0,75,-99.99,,,-99.99,,2013-11-20 08:42:00,
2013-11-20 03:12:00,39.0,32.0,-100.00,SSE,160,8.0,16.0,75,-99.99,,,-99.99,,2013-11-20 09:12:00,
2013-11-20 03:21:00,39.0,32.0,-100.00,ESE,120,9.0,16.0,76,-99.99,,,-99.99,,2013-11-20 09:21:00,
2013-11-20 04:23:00,39.0,32.0,-100.00,SE,130,11.0,17.0,76,-99.99,,,-99.99,,2013-11-20 10:23:00,
2013-11-20 05:12:00,39.0,32.0,-100.00,SE,140,11.0,16.0,77,-99.99,,,-99.99,,2013-11-20 11:12:00,
2013-11-20 05:22:00,38.0,32.0,-100.00,SE,140,9.0,20.0,77,-99.99,,,-99.99,,2013-11-20 11:22:00,
2013-11-20 06:22:00,37.0,32.0,-100.00,SE,130,8.0,15.0,80,-99.99,,,-99.99,,2013-11-20 12:22:00,
2013-11-20 06:42:00,38.0,32.0,-100.00,ESE,110,7.0,17.0,81,-99.99,,,-99.99,,2013-11-20 12:42:00,
2013-11-20 07:11:00,38.0,33.0,-100.00,SE,125,13.0,24.0,81,-99.99,,,-99.99,,2013-11-20 13:11:00,
2013-11-20 07:21:00,38.0,32.0,-100.00,SE,135,14.0,24.0,81,-99.99,,,-99.99,,2013-11-20 13:21:00,
2013-11-20 07:42:00,38.0,33.0,-100.00,South,175,11.0,20.0,81,-99.99,,,-99.99,,2013-11-20 13:42:00,
2013-11-20 09:43:00,38.0,33.0,-100.00,SSE,155,9.0,14.0,81,-99.99,,,-99.99,,2013-11-20 15:43:00,
2013-11-20 10:43:00,39.0,34.0,-100.00,ESE,110,6.0,12.0,81,-99.99,,,-99.99,,2013-11-20 16:43:00,
2013-11-20 12:21:00,39.0,36.0,-100.00,SSE,155,8.0,17.0,89,-99.99,,,-99.99,,2013-11-20 18:21:00,
2013-11-20 12:42:00,38.0,36.0,-100.00,SE,130,7.0,16.0,93,-99.99,,,-99.99,,2013-11-20 18:42:00,
2013-11-20 13:21:00,38.0,38.0,-100.00,SSE,155,11.0,17.0,97,-99.99,,,-99.99,,2013-11-20 19:21:00,
2013-11-20 17:12:00,38.0,38.0,-100.00,East,95,4.0,7.0,99,-99.99,,,-99.99,,2013-11-20 23:12:00,
2013-11-20 17:21:00,38.0,38.0,-100.00,ESE,120,5.0,7.0,99,-99.99,,,-99.99,,2013-11-20 23:21:00,
2013-11-20 17:42:00,39.0,38.0,-100.00,ESE,115,4.0,7.0,99,-99.99,,,-99.99,,2013-11-20 23:42:00,
2013-11-20 18:42:00,39.0,39.0,-100.00,SE,130,6.0,8.0,99,-99.99,,,-99.99,,2013-11-21 00:42:00,
2013-11-20 19:22:00,39.0,39.0,-100.00,SE,140,7.0,12.0,99,-99.99,,,-99.99,,2013-11-21 01:22:00,
2013-11-20 21:22:00,40.0,40.0,-100.00,ESE,115,4.0,7.0,99,-99.99,,,-99.99,,2013-11-21 03:22:00,
2013-11-20 22:23:00,40.0,40.0,-100.00,ESE,120,2.0,4.0,99,-99.99,,,-99.99,,2013-11-21 04:23:00,
2013-11-20 23:22:00,41.0,41.0,-100.00,SSE,150,1.0,4.0,99,-99.99,,,-99.99,,2013-11-21 05:22:00,
2013-11-20 23:42:00,41.0,41.0,-100.00,SSE,160,2.0,4.0,99,-99.99,,,-99.99,,2013-11-21 05:42:00,